createdAt,value
2018-07-12T00:00:17.185Z,14.57
2018-07-12T00:01:16.294Z,14.58
2018-07-12T00:02:16.571Z,14.57
2018-07-12T00:03:16.845Z,14.57
2018-07-12T00:04:17.111Z,14.60
2018-07-12T00:05:16.379Z,14.65
2018-07-12T00:06:16.649Z,14.69
2018-07-12T00:07:17.004Z,14.68
2018-07-12T00:08:16.342Z,14.71
2018-07-12T00:09:16.601Z,14.68
2018-07-12T00:10:16.915Z,14.67
2018-07-12T00:11:16.931Z,14.69
2018-07-12T00:12:17.206Z,14.80
2018-07-12T00:13:16.484Z,14.78
2018-07-12T00:14:16.745Z,14.80
2018-07-12T00:15:17.022Z,14.71
2018-07-12T00:16:16.284Z,14.68
2018-07-12T00:17:16.545Z,14.69
2018-07-12T00:18:16.800Z,14.71
2018-07-12T00:19:17.057Z,14.71
2018-07-12T00:20:16.343Z,14.74
2018-07-12T00:21:16.385Z,14.69
2018-07-12T00:22:16.650Z,14.62
2018-07-12T00:23:16.925Z,14.62
2018-07-12T00:24:17.188Z,14.65
2018-07-12T00:25:16.456Z,14.80
2018-07-12T00:26:16.711Z,15.11
2018-07-12T00:27:16.973Z,14.93
2018-07-12T00:28:16.499Z,14.75
2018-07-12T00:29:16.756Z,14.76
2018-07-12T00:30:17.035Z,14.78
2018-07-12T00:31:17.059Z,14.71
2018-07-12T00:32:16.324Z,14.72
2018-07-12T00:33:16.581Z,14.72
2018-07-12T00:34:16.858Z,15.04
2018-07-12T00:35:17.116Z,15.13
2018-07-12T00:36:16.377Z,14.98
2018-07-12T00:37:16.647Z,14.82
2018-07-12T00:38:16.914Z,14.78
2018-07-12T00:39:17.170Z,14.76
2018-07-12T00:40:16.431Z,14.72
2018-07-12T00:41:16.473Z,14.71
2018-07-12T00:42:16.738Z,14.71
2018-07-12T00:43:16.994Z,14.71
2018-07-12T00:44:16.249Z,14.62
2018-07-12T00:45:16.508Z,14.36
2018-07-12T00:46:16.761Z,14.27
2018-07-12T00:47:17.023Z,14.38
2018-07-12T00:48:16.475Z,14.35
2018-07-12T00:49:16.735Z,14.35
2018-07-12T00:50:16.995Z,14.31
2018-07-12T00:51:17.045Z,14.31
2018-07-12T00:52:16.300Z,14.34
2018-07-12T00:53:16.856Z,14.44
2018-07-12T00:54:17.117Z,14.38
2018-07-12T00:55:16.387Z,14.36
2018-07-12T00:56:16.649Z,14.36
2018-07-12T00:57:16.874Z,14.28
2018-07-12T00:58:17.135Z,14.32
2018-07-12T00:59:16.412Z,14.12
2018-07-12T01:00:16.692Z,14.06
2018-07-12T01:01:16.728Z,14.08
2018-07-12T01:02:16.980Z,14.12
2018-07-12T01:03:16.243Z,14.08
2018-07-12T01:04:16.505Z,14.08
2018-07-12T01:05:16.773Z,14.05
2018-07-12T01:06:17.033Z,14.02
2018-07-12T01:07:16.294Z,13.96
2018-07-12T01:08:16.562Z,13.92
2018-07-12T01:09:16.822Z,13.92
2018-07-12T01:10:17.158Z,13.91
2018-07-12T01:11:17.203Z,13.88
2018-07-12T01:12:16.464Z,13.85
2018-07-12T01:13:16.731Z,13.88
2018-07-12T01:14:16.998Z,13.82
2018-07-12T01:15:16.257Z,13.79
2018-07-12T01:16:16.517Z,13.91
2018-07-12T01:17:16.785Z,13.82
2018-07-12T01:18:17.040Z,13.88
2018-07-12T01:19:16.566Z,13.87
2018-07-12T01:20:16.842Z,13.92
2018-07-12T01:21:16.876Z,13.92
2018-07-12T01:22:17.136Z,14.21
2018-07-12T01:23:16.399Z,14.14
2018-07-12T01:24:16.684Z,14.09
2018-07-12T01:25:16.944Z,13.95
2018-07-12T01:26:16.206Z,13.99
2018-07-12T01:27:16.473Z,14.05
2018-07-12T01:28:16.732Z,14.03
2018-07-12T01:29:17.000Z,14.06
2018-07-12T01:30:16.280Z,14.10
2018-07-12T01:31:16.340Z,14.10
2018-07-12T01:32:16.604Z,14.02
2018-07-12T01:33:16.866Z,14.17
2018-07-12T01:34:17.122Z,14.21
2018-07-12T01:35:16.376Z,14.20
2018-07-12T01:36:16.640Z,14.06
2018-07-12T01:37:16.917Z,14.03
2018-07-12T01:38:17.184Z,14.05
2018-07-12T01:39:16.460Z,13.83
2018-07-12T01:40:17.209Z,13.82
2018-07-12T01:41:16.788Z,13.69
2018-07-12T01:42:17.052Z,13.59
2018-07-12T01:43:16.312Z,13.61
2018-07-12T01:44:16.571Z,13.59
2018-07-12T01:45:16.827Z,13.58
2018-07-12T01:46:17.089Z,13.56
2018-07-12T01:47:16.357Z,13.59
2018-07-12T01:48:16.631Z,13.68
2018-07-12T01:49:16.890Z,13.72
2018-07-12T01:50:17.145Z,13.61
2018-07-12T01:51:17.191Z,13.58
2018-07-12T01:52:16.462Z,13.59
2018-07-12T01:53:16.724Z,13.63
2018-07-12T01:54:16.980Z,13.63
2018-07-12T01:55:16.237Z,13.63
2018-07-12T01:56:16.504Z,13.75
2018-07-12T01:57:16.772Z,13.72
2018-07-12T01:58:17.036Z,13.80
2018-07-12T01:59:16.298Z,13.66
2018-07-12T02:00:16.568Z,13.62
2018-07-12T02:01:16.617Z,13.56
2018-07-12T02:02:16.890Z,13.56
2018-07-12T02:03:17.202Z,13.62
2018-07-12T02:04:16.461Z,13.58
2018-07-12T02:05:17.881Z,13.61
2018-07-12T02:06:17.412Z,13.72
2018-07-12T02:07:16.683Z,13.70
2018-07-12T02:08:16.953Z,13.72
2018-07-12T02:09:16.215Z,13.79
2018-07-12T02:10:16.481Z,13.85
2018-07-12T02:11:16.529Z,13.82
2018-07-12T02:12:16.793Z,13.83
2018-07-12T02:13:17.057Z,13.99
2018-07-12T02:14:16.323Z,13.89
2018-07-12T02:15:16.580Z,13.82
2018-07-12T02:16:16.831Z,13.79
2018-07-12T02:17:17.085Z,13.79
2018-07-12T02:18:16.352Z,13.75
2018-07-12T02:19:16.612Z,13.76
2018-07-12T02:20:16.884Z,13.94
2018-07-12T02:21:16.939Z,13.99
2018-07-12T02:22:16.233Z,13.95
2018-07-12T02:23:16.497Z,13.94
2018-07-12T02:24:16.766Z,14.01
2018-07-12T02:25:17.030Z,13.95
2018-07-12T02:26:16.294Z,13.83
2018-07-12T02:27:16.554Z,13.70
2018-07-12T02:28:16.807Z,13.66
2018-07-12T02:29:17.065Z,13.73
2018-07-12T02:30:16.338Z,13.76
2018-07-12T02:31:16.374Z,13.73
2018-07-12T02:32:16.873Z,13.80
2018-07-12T02:33:17.133Z,13.83
2018-07-12T02:34:16.397Z,13.85
2018-07-12T02:35:16.742Z,13.75
2018-07-12T02:36:16.202Z,13.70
2018-07-12T02:37:16.763Z,13.69
2018-07-12T02:38:17.033Z,13.66
2018-07-12T02:39:16.304Z,13.69
2018-07-12T02:40:16.575Z,13.66
2018-07-12T02:41:16.620Z,13.54
2018-07-12T02:42:16.887Z,13.52
2018-07-12T02:43:17.145Z,13.54
2018-07-12T02:44:16.408Z,13.58
2018-07-12T02:45:16.671Z,13.59
2018-07-12T02:46:16.937Z,13.61
2018-07-12T02:47:17.217Z,13.59
2018-07-12T02:48:16.493Z,13.58
2018-07-12T02:49:16.769Z,13.58
2018-07-12T02:50:17.033Z,13.62
2018-07-12T02:51:17.092Z,13.65
2018-07-12T02:52:16.357Z,13.66
2018-07-12T02:53:17.114Z,13.66
2018-07-12T02:54:16.377Z,13.66
2018-07-12T02:55:16.641Z,13.65
2018-07-12T02:56:16.918Z,13.62
2018-07-12T02:57:17.181Z,13.62
2018-07-12T02:58:16.434Z,13.58
2018-07-12T02:59:16.715Z,13.59
2018-07-12T03:00:16.986Z,13.63
2018-07-12T03:01:17.033Z,13.72
2018-07-12T03:02:16.305Z,13.68
2018-07-12T03:03:16.564Z,13.79
2018-07-12T03:04:16.823Z,13.79
2018-07-12T03:05:17.077Z,13.80
2018-07-12T03:06:16.344Z,13.85
2018-07-12T03:07:16.604Z,13.82
2018-07-12T03:08:16.871Z,13.80
2018-07-12T03:09:17.132Z,13.72
2018-07-12T03:10:16.413Z,13.91
2018-07-12T03:11:16.463Z,14.01
2018-07-12T03:12:16.723Z,13.77
2018-07-12T03:13:16.986Z,13.73
2018-07-12T03:14:16.244Z,13.73
2018-07-12T03:15:16.517Z,13.75
2018-07-12T03:16:16.798Z,13.72
2018-07-12T03:17:17.081Z,13.68
2018-07-12T03:18:16.343Z,13.66
2018-07-12T03:19:16.602Z,13.66
2018-07-12T03:20:16.874Z,13.73
2018-07-12T03:21:16.905Z,13.75
2018-07-12T03:22:17.176Z,13.76
2018-07-12T03:23:16.452Z,13.82
2018-07-12T03:24:16.725Z,13.85
2018-07-12T03:25:16.994Z,13.87
2018-07-12T03:26:16.254Z,13.92
2018-07-12T03:27:16.528Z,13.96
2018-07-12T03:28:16.795Z,13.94
2018-07-12T03:29:17.067Z,14.01
2018-07-12T03:30:16.339Z,14.02
2018-07-12T03:31:16.379Z,14.02
2018-07-12T03:32:16.646Z,13.99
2018-07-12T03:33:16.909Z,14.02
2018-07-12T03:34:17.170Z,14.05
2018-07-12T03:35:16.444Z,14.05
2018-07-12T03:36:16.699Z,14.08
2018-07-12T03:37:16.961Z,14.06
2018-07-12T03:38:16.223Z,14.19
2018-07-12T03:39:16.495Z,14.31
2018-07-12T03:40:16.774Z,14.26
2018-07-12T03:41:16.806Z,14.20
2018-07-12T03:42:17.080Z,14.20
2018-07-12T03:43:16.339Z,14.19
2018-07-12T03:44:16.604Z,14.12
2018-07-12T03:45:16.869Z,14.10
2018-07-12T03:46:17.141Z,14.13
2018-07-12T03:47:16.429Z,14.14
2018-07-12T03:48:16.869Z,14.16
2018-07-12T03:49:17.138Z,14.16
2018-07-12T03:50:16.413Z,14.20
2018-07-12T03:51:16.457Z,14.23
2018-07-12T03:52:16.724Z,14.24
2018-07-12T03:53:16.984Z,14.24
2018-07-12T03:54:16.255Z,14.24
2018-07-12T03:55:16.522Z,14.24
2018-07-12T03:56:16.788Z,14.23
2018-07-12T03:57:17.048Z,14.19
2018-07-12T03:58:16.332Z,14.19
2018-07-12T03:59:16.599Z,14.19
2018-07-12T04:00:16.857Z,14.10
2018-07-12T04:01:16.916Z,14.12
2018-07-12T04:02:17.182Z,14.08
2018-07-12T04:03:16.445Z,14.09
2018-07-12T04:04:16.700Z,14.08
2018-07-12T04:05:16.948Z,14.21
2018-07-12T04:06:16.210Z,14.21
2018-07-12T04:07:16.481Z,14.21
2018-07-12T04:08:16.756Z,14.12
2018-07-12T04:09:17.027Z,14.12
2018-07-12T04:10:16.290Z,14.12
2018-07-12T04:11:16.329Z,14.10
2018-07-12T04:12:16.594Z,14.09
2018-07-12T04:13:16.853Z,14.09
2018-07-12T04:14:17.114Z,14.13
2018-07-12T04:15:16.376Z,14.19
2018-07-12T04:16:16.641Z,14.20
2018-07-12T04:17:16.905Z,14.31
2018-07-12T04:18:17.179Z,14.35
2018-07-12T04:19:16.440Z,14.38
2018-07-12T04:20:16.704Z,14.38
2018-07-12T04:21:16.753Z,14.39
2018-07-12T04:22:17.011Z,14.39
2018-07-12T04:23:16.461Z,14.44
2018-07-12T04:24:16.725Z,14.39
2018-07-12T04:25:16.988Z,14.50
2018-07-12T04:26:16.257Z,14.60
2018-07-12T04:27:16.521Z,14.71
2018-07-12T04:28:16.786Z,14.67
2018-07-12T04:29:17.058Z,14.67
2018-07-12T04:30:16.332Z,14.64
2018-07-12T04:31:16.382Z,14.71
2018-07-12T04:32:16.640Z,14.65
2018-07-12T04:33:16.915Z,14.68
2018-07-12T04:34:17.181Z,14.69
2018-07-12T04:35:16.452Z,14.72
2018-07-12T04:36:16.722Z,14.78
2018-07-12T04:37:16.999Z,14.75
2018-07-12T04:38:16.268Z,14.83
2018-07-12T04:39:16.534Z,15.05
2018-07-12T04:40:16.809Z,15.04
2018-07-12T04:41:16.834Z,15.04
2018-07-12T04:42:17.419Z,15.16
2018-07-12T04:43:16.680Z,15.15
2018-07-12T04:44:16.939Z,15.13
2018-07-12T04:45:17.217Z,15.08
2018-07-12T04:46:16.487Z,15.04
2018-07-12T04:47:16.751Z,15.04
2018-07-12T04:48:17.032Z,15.11
2018-07-12T04:49:16.297Z,15.26
2018-07-12T04:50:16.531Z,15.18
2018-07-12T04:51:16.640Z,15.20
2018-07-12T04:52:17.171Z,15.19
2018-07-12T04:53:16.444Z,15.13
2018-07-12T04:54:16.706Z,15.19
2018-07-12T04:55:16.972Z,15.22
2018-07-12T04:56:16.237Z,15.32
2018-07-12T04:57:16.518Z,15.38
2018-07-12T04:58:16.871Z,15.44
2018-07-12T04:59:16.459Z,15.54
2018-07-12T05:00:16.725Z,15.52
2018-07-12T05:01:16.758Z,15.43
2018-07-12T05:02:17.017Z,15.52
2018-07-12T05:03:16.281Z,15.57
2018-07-12T05:04:16.555Z,15.63
2018-07-12T05:05:16.827Z,15.55
2018-07-12T05:06:17.084Z,15.51
2018-07-12T05:07:16.343Z,15.41
2018-07-12T05:08:16.599Z,15.55
2018-07-12T05:09:16.872Z,15.57
2018-07-12T05:10:17.138Z,15.60
2018-07-12T05:11:17.167Z,15.79
2018-07-12T05:12:16.467Z,15.67
2018-07-12T05:13:16.728Z,16.10
2018-07-12T05:14:16.988Z,16.06
2018-07-12T05:15:16.249Z,15.96
2018-07-12T05:16:16.668Z,15.85
2018-07-12T05:17:17.126Z,15.92
2018-07-12T05:18:16.387Z,15.91
2018-07-12T05:19:16.651Z,15.84
2018-07-12T05:20:16.915Z,15.78
2018-07-12T05:21:16.953Z,15.95
2018-07-12T05:22:16.229Z,16.09
2018-07-12T05:23:16.502Z,16.14
2018-07-12T05:24:16.766Z,16.25
2018-07-12T05:25:17.027Z,16.44
2018-07-12T05:26:16.289Z,16.56
2018-07-12T05:27:16.522Z,16.60
2018-07-12T05:28:16.781Z,16.61
2018-07-12T05:29:17.041Z,16.58
2018-07-12T05:30:16.313Z,16.62
2018-07-12T05:31:16.366Z,16.62
2018-07-12T05:32:16.627Z,16.57
2018-07-12T05:33:16.891Z,16.39
2018-07-12T05:34:17.150Z,16.21
2018-07-12T05:35:16.425Z,16.03
2018-07-12T05:36:16.697Z,16.17
2018-07-12T05:37:16.966Z,16.06
2018-07-12T05:38:16.227Z,16.06
2018-07-12T05:39:16.518Z,16.06
2018-07-12T05:40:16.814Z,16.00
2018-07-12T05:41:16.849Z,15.98
2018-07-12T05:42:17.119Z,16.04
2018-07-12T05:43:16.384Z,16.04
2018-07-12T05:44:16.639Z,15.98
2018-07-12T05:45:16.900Z,16.00
2018-07-12T05:46:17.160Z,16.00
2018-07-12T05:47:16.426Z,15.99
2018-07-12T05:48:16.687Z,15.92
2018-07-12T05:49:16.951Z,15.93
2018-07-12T05:50:16.219Z,15.75
2018-07-12T05:51:16.277Z,15.82
2018-07-12T05:52:16.545Z,15.88
2018-07-12T05:53:16.797Z,15.86
2018-07-12T05:54:17.069Z,15.86
2018-07-12T05:55:16.330Z,15.78
2018-07-12T05:56:16.606Z,15.82
2018-07-12T05:57:16.874Z,15.81
2018-07-12T05:58:17.137Z,15.81
2018-07-12T05:59:16.393Z,15.78
2018-07-12T06:00:16.664Z,15.82
2018-07-12T06:01:16.708Z,15.84
2018-07-12T06:02:16.974Z,15.77
2018-07-12T06:03:16.238Z,15.72
2018-07-12T06:04:16.505Z,15.84
2018-07-12T06:05:16.770Z,15.88
2018-07-12T06:06:17.047Z,15.93
2018-07-12T06:07:16.314Z,15.98
2018-07-12T06:08:16.576Z,15.99
2018-07-12T06:09:16.840Z,15.99
2018-07-12T06:10:17.131Z,15.84
2018-07-12T06:11:17.164Z,15.86
2018-07-12T06:12:16.431Z,15.85
2018-07-12T06:13:16.775Z,15.86
2018-07-12T06:14:16.258Z,15.91
2018-07-12T06:15:16.518Z,15.88
2018-07-12T06:16:16.774Z,15.84
2018-07-12T06:17:17.045Z,15.69
2018-07-12T06:18:16.308Z,15.67
2018-07-12T06:19:16.576Z,15.69
2018-07-12T06:20:16.842Z,15.72
2018-07-12T06:21:16.873Z,15.75
2018-07-12T06:22:17.136Z,15.74
2018-07-12T06:23:16.396Z,15.75
2018-07-12T06:24:16.680Z,15.79
2018-07-12T06:25:16.986Z,15.84
2018-07-12T06:26:16.291Z,15.91
2018-07-12T06:27:16.555Z,15.99
2018-07-12T06:28:16.808Z,15.99
2018-07-12T06:29:17.062Z,16.04
2018-07-12T06:30:16.335Z,16.14
2018-07-12T06:31:16.361Z,16.21
2018-07-12T06:32:16.659Z,16.30
2018-07-12T06:33:16.925Z,16.51
2018-07-12T06:34:17.191Z,16.69
2018-07-12T06:35:16.454Z,16.82
2018-07-12T06:36:16.712Z,16.86
2018-07-12T06:37:17.070Z,16.94
2018-07-12T06:38:16.464Z,17.20
2018-07-12T06:39:16.736Z,17.28
2018-07-12T06:40:17.010Z,17.66
2018-07-12T06:41:17.039Z,17.78
2018-07-12T06:42:16.312Z,17.77
2018-07-12T06:43:16.570Z,17.77
2018-07-12T06:44:16.833Z,17.45
2018-07-12T06:45:17.105Z,17.35
2018-07-12T06:46:16.377Z,17.26
2018-07-12T06:47:16.635Z,17.11
2018-07-12T06:48:16.903Z,16.90
2018-07-12T06:49:17.162Z,16.86
2018-07-12T06:50:16.430Z,17.07
2018-07-12T06:51:16.472Z,17.16
2018-07-12T06:52:16.736Z,17.00
2018-07-12T06:53:17.002Z,16.95
2018-07-12T06:54:16.267Z,17.20
2018-07-12T06:55:16.556Z,17.33
2018-07-12T06:56:16.824Z,17.54
2018-07-12T06:57:17.078Z,17.68
2018-07-12T06:58:16.338Z,17.49
2018-07-12T06:59:16.606Z,17.19
2018-07-12T07:00:16.873Z,17.08
2018-07-12T07:01:16.936Z,17.15
2018-07-12T07:02:16.209Z,17.37
2018-07-12T07:03:16.492Z,17.53
2018-07-12T07:04:16.767Z,17.68
2018-07-12T07:05:17.038Z,17.77
2018-07-12T07:06:16.302Z,17.86
2018-07-12T07:07:16.592Z,17.82
2018-07-12T07:08:16.864Z,17.92
2018-07-12T07:09:17.129Z,17.99
2018-07-12T07:10:16.406Z,17.74
2018-07-12T07:11:16.433Z,17.49
2018-07-12T07:12:16.706Z,17.54
2018-07-12T07:13:16.967Z,17.56
2018-07-12T07:14:16.221Z,17.75
2018-07-12T07:15:16.493Z,17.84
2018-07-12T07:16:16.796Z,18.09
2018-07-12T07:17:17.063Z,17.99
2018-07-12T07:18:16.334Z,17.99
2018-07-12T07:19:16.600Z,17.99
2018-07-12T07:20:16.923Z,18.03
2018-07-12T07:21:16.902Z,18.05
2018-07-12T07:22:17.177Z,18.07
2018-07-12T07:23:16.445Z,17.75
2018-07-12T07:24:16.705Z,17.66
2018-07-12T07:25:16.977Z,17.80
2018-07-12T07:26:16.340Z,17.82
2018-07-12T07:27:16.713Z,18.03
2018-07-12T07:28:16.998Z,17.98
2018-07-12T07:29:16.257Z,17.68
2018-07-12T07:30:16.534Z,17.73
2018-07-12T07:31:16.561Z,17.68
2018-07-12T07:32:16.821Z,17.75
2018-07-12T07:33:17.131Z,17.84
2018-07-12T07:34:16.388Z,17.52
2018-07-12T07:35:16.657Z,17.41
2018-07-12T07:36:16.934Z,17.66
2018-07-12T07:37:17.196Z,18.38
2018-07-12T07:38:16.457Z,18.66
2018-07-12T07:39:16.712Z,18.85
2018-07-12T07:40:16.980Z,19.23
2018-07-12T07:41:17.011Z,20.43
2018-07-12T07:42:16.267Z,20.06
2018-07-12T07:43:16.610Z,20.00
2018-07-12T07:44:17.015Z,20.91
2018-07-12T07:45:16.270Z,21.87
2018-07-12T07:46:16.534Z,22.61
2018-07-12T07:47:16.797Z,22.41
2018-07-12T07:48:17.440Z,20.97
2018-07-12T07:49:16.816Z,20.46
2018-07-12T07:50:17.173Z,21.95
2018-07-12T07:51:16.216Z,22.00
2018-07-12T07:52:16.481Z,22.36
2018-07-12T07:53:16.742Z,22.09
2018-07-12T07:54:17.015Z,21.89
2018-07-12T07:55:16.276Z,22.04
2018-07-12T07:56:16.532Z,20.87
2018-07-12T07:57:16.801Z,21.12
2018-07-12T07:58:17.066Z,21.53
2018-07-12T07:59:16.326Z,23.13
2018-07-12T08:00:16.605Z,24.09
2018-07-12T08:01:16.620Z,24.41
2018-07-12T08:02:16.872Z,25.17
2018-07-12T08:03:17.135Z,25.77
2018-07-12T08:04:16.502Z,25.91
2018-07-12T08:05:16.761Z,24.90
2018-07-12T08:06:17.025Z,25.43
2018-07-12T08:07:16.294Z,25.00
2018-07-12T08:08:16.553Z,26.16
2018-07-12T08:09:16.825Z,27.02
2018-07-12T08:10:17.088Z,27.57
2018-07-12T08:11:17.117Z,26.93
2018-07-12T08:12:16.375Z,24.96
2018-07-12T08:13:16.631Z,24.49
2018-07-12T08:14:16.895Z,24.79
2018-07-12T08:15:17.158Z,25.54
2018-07-12T08:16:16.483Z,24.35
2018-07-12T08:17:16.896Z,24.92
2018-07-12T08:18:17.159Z,24.16
2018-07-12T08:19:16.421Z,23.40
2018-07-12T08:20:16.685Z,23.23
2018-07-12T08:21:16.735Z,23.44
2018-07-12T08:22:16.992Z,23.38
2018-07-12T08:23:16.247Z,22.98
2018-07-12T08:24:16.497Z,22.77
2018-07-12T08:25:16.761Z,23.29
2018-07-12T08:26:17.025Z,23.11
2018-07-12T08:27:16.283Z,23.06
2018-07-12T08:28:16.544Z,22.70
2018-07-12T08:29:16.810Z,22.18
2018-07-12T08:30:17.117Z,22.32
2018-07-12T08:31:17.225Z,22.73
2018-07-12T08:32:16.633Z,22.79
2018-07-12T08:33:16.944Z,23.37
2018-07-12T08:34:16.258Z,24.35
2018-07-12T08:35:16.523Z,24.59
2018-07-12T08:36:16.823Z,25.40
2018-07-12T08:37:16.277Z,25.22
2018-07-12T08:38:16.533Z,25.15
2018-07-12T08:39:16.801Z,23.85
2018-07-12T08:40:17.070Z,23.95
2018-07-12T08:41:17.106Z,23.98
2018-07-12T08:42:16.441Z,23.08
2018-07-12T08:43:16.722Z,23.02
2018-07-12T08:44:16.989Z,22.00
2018-07-12T08:45:16.269Z,21.01
2018-07-12T08:46:16.644Z,21.01
2018-07-12T08:47:17.119Z,20.55
2018-07-12T08:48:16.391Z,20.93
2018-07-12T08:49:16.702Z,21.20
2018-07-12T08:50:16.973Z,21.01
2018-07-12T08:51:17.007Z,22.50
2018-07-12T08:52:16.265Z,23.66
2018-07-12T08:53:16.579Z,24.28
2018-07-12T08:54:16.851Z,25.25
2018-07-12T08:55:17.139Z,25.53
2018-07-12T08:56:16.404Z,24.92
2018-07-12T08:57:16.673Z,23.32
2018-07-12T08:58:16.929Z,23.32
2018-07-12T08:59:17.194Z,22.64
2018-07-12T09:00:16.508Z,22.84
2018-07-12T09:01:16.517Z,23.00
2018-07-12T09:02:16.786Z,23.57
2018-07-12T09:03:17.066Z,22.43
2018-07-12T09:04:16.326Z,22.67
2018-07-12T09:05:16.587Z,22.71
2018-07-12T09:06:16.852Z,22.98
2018-07-12T09:07:17.113Z,22.68
2018-07-12T09:08:16.390Z,22.17
2018-07-12T09:09:16.656Z,22.35
2018-07-12T09:10:16.930Z,22.39
2018-07-12T09:11:16.976Z,22.66
2018-07-12T09:12:16.246Z,23.22
2018-07-12T09:13:16.509Z,23.88
2018-07-12T09:14:16.766Z,24.32
2018-07-12T09:15:17.021Z,23.90
2018-07-12T09:16:16.287Z,24.12
2018-07-12T09:17:16.554Z,24.10
2018-07-12T09:18:16.808Z,24.75
2018-07-12T09:19:17.079Z,24.46
2018-07-12T09:20:16.345Z,23.83
2018-07-12T09:21:16.379Z,23.81
2018-07-12T09:22:16.640Z,22.75
2018-07-12T09:23:16.904Z,23.11
2018-07-12T09:24:17.169Z,23.26
2018-07-12T09:25:16.437Z,22.88
2018-07-12T09:26:16.700Z,21.97
2018-07-12T09:27:16.952Z,21.76
2018-07-12T09:28:16.217Z,21.57
2018-07-12T09:29:16.578Z,21.80
2018-07-12T09:30:16.991Z,21.82
2018-07-12T09:31:17.049Z,21.84
2018-07-12T09:32:16.307Z,22.06
2018-07-12T09:33:16.569Z,22.45
2018-07-12T09:34:16.834Z,23.08
2018-07-12T09:35:17.097Z,23.20
2018-07-12T09:36:16.363Z,22.88
2018-07-12T09:37:16.628Z,22.86
2018-07-12T09:38:16.894Z,22.43
2018-07-12T09:39:17.154Z,23.09
2018-07-12T09:40:16.414Z,24.68
2018-07-12T09:41:16.465Z,24.52
2018-07-12T09:42:16.726Z,24.08
2018-07-12T09:43:17.002Z,23.48
2018-07-12T09:44:16.258Z,23.13
2018-07-12T09:45:16.522Z,23.51
2018-07-12T09:46:16.788Z,24.60
2018-07-12T09:47:17.093Z,24.96
2018-07-12T09:48:16.579Z,23.98
2018-07-12T09:49:17.043Z,23.16
2018-07-12T09:50:16.684Z,23.23
2018-07-12T09:51:16.722Z,23.62
2018-07-12T09:52:16.984Z,24.02
2018-07-12T09:53:16.246Z,24.85
2018-07-12T09:54:16.506Z,24.72
2018-07-12T09:55:16.778Z,22.54
2018-07-12T09:56:17.185Z,22.47
2018-07-12T09:57:16.669Z,22.28
2018-07-12T09:58:16.927Z,23.16
2018-07-12T09:59:17.187Z,23.43
2018-07-12T10:00:16.449Z,23.50
2018-07-12T10:01:16.551Z,23.27
2018-07-12T10:02:16.947Z,23.61
2018-07-12T10:03:16.206Z,23.58
2018-07-12T10:04:16.460Z,23.45
2018-07-12T10:05:16.728Z,23.66
2018-07-12T10:06:16.988Z,24.57
2018-07-12T10:07:16.244Z,24.56
2018-07-12T10:08:16.508Z,23.98
2018-07-12T10:09:16.769Z,24.24
2018-07-12T10:10:17.041Z,24.24
2018-07-12T10:11:17.086Z,24.12
2018-07-12T10:12:16.340Z,24.25
2018-07-12T10:13:16.604Z,23.96
2018-07-12T10:14:16.873Z,23.30
2018-07-12T10:15:17.138Z,23.15
2018-07-12T10:16:16.400Z,23.44
2018-07-12T10:17:16.680Z,24.23
2018-07-12T10:18:16.937Z,23.58
2018-07-12T10:19:16.218Z,23.58
2018-07-12T10:20:16.487Z,23.37
2018-07-12T10:21:16.524Z,23.62
2018-07-12T10:22:16.783Z,24.52
2018-07-12T10:23:17.044Z,25.03
2018-07-12T10:24:16.299Z,24.67
2018-07-12T10:25:16.566Z,25.28
2018-07-12T10:26:16.829Z,25.95
2018-07-12T10:27:17.088Z,26.45
2018-07-12T10:28:16.364Z,26.38
2018-07-12T10:29:16.624Z,26.16
2018-07-12T10:30:16.898Z,26.62
2018-07-12T10:31:16.939Z,26.63
2018-07-12T10:32:16.196Z,26.16
2018-07-12T10:33:16.461Z,26.65
2018-07-12T10:34:16.719Z,26.83
2018-07-12T10:35:16.987Z,27.68
2018-07-12T10:36:16.251Z,27.59
2018-07-12T10:37:16.515Z,28.33
2018-07-12T10:38:16.830Z,28.37
2018-07-12T10:39:17.096Z,28.59
2018-07-12T10:40:16.372Z,27.78
2018-07-12T10:41:16.478Z,28.20
2018-07-12T10:42:16.753Z,28.84
2018-07-12T10:43:17.023Z,28.98
2018-07-12T10:44:16.294Z,27.39
2018-07-12T10:45:16.567Z,28.09
2018-07-12T10:46:16.822Z,27.92
2018-07-12T10:47:17.081Z,26.02
2018-07-12T10:48:16.342Z,25.33
2018-07-12T10:49:16.599Z,25.50
2018-07-12T10:50:16.861Z,25.46
2018-07-12T10:51:16.898Z,26.23
2018-07-12T10:52:17.169Z,26.54
2018-07-12T10:53:16.424Z,26.37
2018-07-12T10:54:16.682Z,26.27
2018-07-12T10:55:16.953Z,27.08
2018-07-12T10:56:16.213Z,26.49
2018-07-12T10:57:16.484Z,25.76
2018-07-12T10:58:16.759Z,25.69
2018-07-12T10:59:17.019Z,25.24
2018-07-12T11:00:16.287Z,25.92
2018-07-12T11:01:16.330Z,25.65
2018-07-12T11:02:16.595Z,26.47
2018-07-12T11:03:16.861Z,27.28
2018-07-12T11:04:17.126Z,27.57
2018-07-12T11:05:16.402Z,28.41
2018-07-12T11:06:16.671Z,27.59
2018-07-12T11:07:16.943Z,27.95
2018-07-12T11:08:16.200Z,28.54
2018-07-12T11:09:16.449Z,28.24
2018-07-12T11:10:16.723Z,28.97
2018-07-12T11:11:16.776Z,28.56
2018-07-12T11:12:17.036Z,28.66
2018-07-12T11:13:16.297Z,28.29
2018-07-12T11:14:16.558Z,27.84
2018-07-12T11:15:16.813Z,27.46
2018-07-12T11:16:17.078Z,27.32
2018-07-12T11:17:16.348Z,27.10
2018-07-12T11:18:16.605Z,27.14
2018-07-12T11:19:16.869Z,26.73
2018-07-12T11:20:17.140Z,26.52
2018-07-12T11:21:17.358Z,26.44
2018-07-12T11:22:16.822Z,26.81
2018-07-12T11:23:17.098Z,27.07
2018-07-12T11:24:16.367Z,26.66
2018-07-12T11:25:16.627Z,27.11
2018-07-12T11:26:16.881Z,27.53
2018-07-12T11:27:17.143Z,27.68
2018-07-12T11:28:16.408Z,27.52
2018-07-12T11:29:16.679Z,27.45
2018-07-12T11:30:16.989Z,28.10
2018-07-12T11:31:16.994Z,28.04
2018-07-12T11:32:16.257Z,27.60
2018-07-12T11:33:16.526Z,27.95
2018-07-12T11:34:16.805Z,27.60
2018-07-12T11:35:17.061Z,27.42
2018-07-12T11:36:16.382Z,26.42
2018-07-12T11:37:16.743Z,26.08
2018-07-12T11:38:16.996Z,25.85
2018-07-12T11:39:16.266Z,25.53
2018-07-12T11:40:16.532Z,25.61
2018-07-12T11:41:16.580Z,25.95
2018-07-12T11:42:16.836Z,25.66
2018-07-12T11:43:17.095Z,25.45
2018-07-12T11:44:16.360Z,25.24
2018-07-12T11:45:16.626Z,25.29
2018-07-12T11:46:16.892Z,24.86
2018-07-12T11:47:17.164Z,24.63
2018-07-12T11:48:16.430Z,24.76
2018-07-12T11:49:16.985Z,24.90
2018-07-12T11:50:16.293Z,25.07
2018-07-12T11:51:16.369Z,25.56
2018-07-12T11:52:16.630Z,25.71
2018-07-12T11:53:16.913Z,25.64
2018-07-12T11:54:17.178Z,25.25
2018-07-12T11:55:16.450Z,25.14
2018-07-12T11:56:16.711Z,25.14
2018-07-12T11:57:16.969Z,25.07
2018-07-12T11:58:16.237Z,25.10
2018-07-12T11:59:16.497Z,25.07
2018-07-12T12:00:16.779Z,25.00
2018-07-12T12:01:16.798Z,24.75
2018-07-12T12:02:17.189Z,24.81
2018-07-12T12:03:16.450Z,24.55
2018-07-12T12:04:16.711Z,24.63
2018-07-12T12:05:16.984Z,24.35
2018-07-12T12:06:16.253Z,24.53
2018-07-12T12:07:16.517Z,24.50
2018-07-12T12:08:16.785Z,24.34
2018-07-12T12:09:17.044Z,24.23
2018-07-12T12:10:16.306Z,24.02
2018-07-12T12:11:16.349Z,24.01
2018-07-12T12:12:16.621Z,23.95
2018-07-12T12:13:16.891Z,23.95
2018-07-12T12:14:17.159Z,23.65
2018-07-12T12:15:16.423Z,23.66
2018-07-12T12:16:16.681Z,23.57
2018-07-12T12:17:16.940Z,23.30
2018-07-12T12:18:16.205Z,23.38
2018-07-12T12:19:16.468Z,23.55
2018-07-12T12:20:16.809Z,23.71
2018-07-12T12:21:16.855Z,23.54
2018-07-12T12:22:17.124Z,23.47
2018-07-12T12:23:16.391Z,23.25
2018-07-12T12:24:16.650Z,23.36
2018-07-12T12:25:16.912Z,23.36
2018-07-12T12:26:17.175Z,23.36
2018-07-12T12:27:16.436Z,23.26
2018-07-12T12:28:16.705Z,23.09
2018-07-12T12:29:17.032Z,23.48
2018-07-12T12:30:16.304Z,23.62
2018-07-12T12:31:16.403Z,23.25
2018-07-12T12:32:16.667Z,23.05
2018-07-12T12:33:16.932Z,23.13
2018-07-12T12:34:17.193Z,23.18
2018-07-12T12:35:16.444Z,23.43
2018-07-12T12:36:16.709Z,23.40
2018-07-12T12:37:16.972Z,23.33
2018-07-12T12:38:16.238Z,23.62
2018-07-12T12:39:16.495Z,23.62
2018-07-12T12:40:16.768Z,23.76
2018-07-12T12:41:16.816Z,23.70
2018-07-12T12:42:17.076Z,23.77
2018-07-12T12:43:16.337Z,23.65
2018-07-12T12:44:16.600Z,23.50
2018-07-12T12:45:16.848Z,23.47
2018-07-12T12:46:17.117Z,23.74
2018-07-12T12:47:16.379Z,23.80
2018-07-12T12:48:16.645Z,23.71
2018-07-12T12:49:16.903Z,23.88
2018-07-12T12:50:17.164Z,23.90
2018-07-12T12:51:16.216Z,23.91
2018-07-12T12:52:16.496Z,23.83